createdAt,value
2019-05-06T00:00:53.452Z,97991.55
2019-05-06T00:01:46.187Z,97995.98
2019-05-06T00:02:49.122Z,97996.53
2019-05-06T00:03:54.020Z,97992.04
2019-05-06T00:04:56.420Z,97984.44
2019-05-06T00:06:00.838Z,97994.45
2019-05-06T00:07:04.275Z,97989.42
2019-05-06T00:08:08.959Z,97990.61
2019-05-06T00:09:14.362Z,97986.77
2019-05-06T00:10:24.585Z,97983.80
2019-05-06T00:11:27.768Z,97985.48
2019-05-06T00:12:29.942Z,97984.44
2019-05-06T00:13:34.317Z,97980.45
2019-05-06T00:14:38.650Z,97985.76
2019-05-06T00:15:43.700Z,97985.93
2019-05-06T00:16:46.860Z,97994.06
2019-05-06T00:17:49.201Z,97989.14
2019-05-06T00:18:54.092Z,97988.09
2019-05-06T00:19:57.526Z,97991.23
2019-05-06T00:21:00.490Z,97995.77
2019-05-06T00:22:04.613Z,97988.89
2019-05-06T00:23:14.087Z,97999.09
2019-05-06T00:24:15.499Z,97995.98
2019-05-06T00:25:19.557Z,97999.75
2019-05-06T00:26:29.590Z,97996.36
2019-05-06T00:27:36.658Z,97991.38
2019-05-06T00:28:39.201Z,97984.89
2019-05-06T00:29:43.892Z,98001.11
2019-05-06T00:30:47.398Z,97993.88
2019-05-06T00:31:49.579Z,98002.32
2019-05-06T00:32:53.841Z,97994.05
2019-05-06T00:33:56.086Z,97998.69
2019-05-06T00:34:58.302Z,97995.79
2019-05-06T00:36:01.331Z,98004.63
2019-05-06T00:37:04.060Z,98003.76
2019-05-06T00:38:06.814Z,98001.42
2019-05-06T00:39:11.494Z,97999.37
2019-05-06T00:40:15.507Z,98004.00
2019-05-06T00:41:35.851Z,98004.21
2019-05-06T00:42:38.657Z,98000.06
2019-05-06T00:43:40.373Z,98004.98
2019-05-06T00:44:44.299Z,98005.64
2019-05-06T00:45:46.319Z,97998.73
2019-05-06T00:46:48.589Z,98000.03
2019-05-06T00:47:50.830Z,98003.03
2019-05-06T00:48:54.291Z,98007.39
2019-05-06T00:49:57.390Z,97998.53
2019-05-06T00:51:00.044Z,97997.23
2019-05-06T00:52:04.271Z,97998.73
2019-05-06T00:53:08.958Z,98003.27
2019-05-06T00:54:14.304Z,97998.69
2019-05-06T00:55:16.864Z,97993.77
2019-05-06T00:56:19.173Z,97998.13
2019-05-06T00:57:23.408Z,97994.12
2019-05-06T00:58:26.324Z,97997.37
2019-05-06T00:59:28.778Z,97996.53
2019-05-06T01:00:33.754Z,97991.95
2019-05-06T01:01:36.562Z,97991.95
2019-05-06T01:02:39.271Z,97994.44
2019-05-06T01:03:41.464Z,97987.28
2019-05-06T01:04:44.592Z,97988.98
2019-05-06T01:05:47.057Z,97988.39
2019-05-06T01:06:49.631Z,97989.02
2019-05-06T01:07:54.718Z,97990.20
2019-05-06T01:08:56.456Z,97990.06
2019-05-06T01:09:58.391Z,97979.70
2019-05-06T01:11:04.065Z,97983.24
2019-05-06T01:12:06.767Z,97978.86
2019-05-06T01:13:14.558Z,97978.38
2019-05-06T01:14:23.526Z,97977.70
2019-05-06T01:15:28.411Z,97976.15
2019-05-06T01:16:30.686Z,97979.75
2019-05-06T01:17:33.886Z,97982.08
2019-05-06T01:18:36.230Z,97975.27
2019-05-06T01:19:38.677Z,97981.10
2019-05-06T01:20:41.175Z,97976.26
2019-05-06T01:21:44.771Z,97987.58
2019-05-06T01:22:47.307Z,97982.89
2019-05-06T01:23:49.865Z,97983.58
2019-05-06T01:24:52.015Z,97982.11
2019-05-06T01:25:55.399Z,97988.19
2019-05-06T01:26:57.701Z,97986.69
2019-05-06T01:27:59.673Z,97983.72
2019-05-06T01:29:03.907Z,97990.34
2019-05-06T01:30:08.947Z,97981.19
2019-05-06T01:31:13.844Z,97989.74
2019-05-06T01:32:16.923Z,97985.42
2019-05-06T01:33:18.889Z,97981.80
2019-05-06T01:34:21.051Z,97988.39
2019-05-06T01:35:24.510Z,97984.59
2019-05-06T01:36:27.166Z,97990.03
2019-05-06T01:37:29.197Z,97988.42
2019-05-06T01:38:36.926Z,97990.06
2019-05-06T01:39:43.775Z,97990.09
2019-05-06T01:40:48.003Z,97989.59
2019-05-06T01:41:53.684Z,97990.03
2019-05-06T01:42:58.000Z,97984.60
2019-05-06T01:44:00.336Z,97985.92
2019-05-06T01:45:05.835Z,97987.80
2019-05-06T01:46:08.638Z,97988.61
2019-05-06T01:47:11.385Z,97983.00
2019-05-06T01:48:15.314Z,97983.14
2019-05-06T01:49:18.180Z,97988.30
2019-05-06T01:50:20.962Z,97986.37
2019-05-06T01:51:24.133Z,97982.23
2019-05-06T01:52:27.028Z,97981.54
2019-05-06T01:53:29.375Z,97983.70
2019-05-06T01:54:34.348Z,97987.81
2019-05-06T01:55:36.879Z,97985.16
2019-05-06T01:56:39.573Z,97989.17
2019-05-06T01:57:41.911Z,97983.91
2019-05-06T01:58:44.342Z,97986.03
2019-05-06T01:59:46.536Z,97989.87
2019-05-06T02:00:48.892Z,97988.13
2019-05-06T02:01:59.219Z,97987.80
2019-05-06T02:02:56.489Z,97983.55
2019-05-06T02:03:58.499Z,97988.30
2019-05-06T02:05:00.740Z,98000.86
2019-05-06T02:06:04.846Z,97990.63
2019-05-06T02:07:07.465Z,97985.05
2019-05-06T02:08:09.702Z,97992.80
2019-05-06T02:09:15.329Z,97990.03
2019-05-06T02:10:17.071Z,97994.32
2019-05-06T02:11:19.355Z,97986.34
2019-05-06T02:12:21.479Z,97985.81
2019-05-06T02:13:23.853Z,97977.79
2019-05-06T02:14:26.265Z,97984.59
2019-05-06T02:15:28.594Z,97985.00
2019-05-06T02:16:31.303Z,97987.09
2019-05-06T02:17:34.496Z,97988.73
2019-05-06T02:18:37.471Z,97992.12
2019-05-06T02:19:39.634Z,97988.13
2019-05-06T02:20:44.418Z,97985.73
2019-05-06T02:21:46.866Z,97990.53
2019-05-06T02:22:51.079Z,97996.70
2019-05-06T02:23:59.935Z,97994.95
2019-05-06T02:25:11.243Z,97994.06
2019-05-06T02:26:14.240Z,97989.09
2019-05-06T02:27:16.906Z,97987.88
2019-05-06T02:28:19.841Z,97988.54
2019-05-06T02:29:28.194Z,97977.62
2019-05-06T02:30:36.729Z,97985.77
2019-05-06T02:31:46.207Z,97979.00
2019-05-06T02:32:55.696Z,97978.66
2019-05-06T02:33:59.528Z,97975.27
2019-05-06T02:35:07.406Z,97972.48
2019-05-06T02:36:15.030Z,97978.28
2019-05-06T02:37:37.808Z,97977.53
2019-05-06T02:38:50.586Z,97991.82
2019-05-06T02:39:48.036Z,97983.91
2019-05-06T02:40:53.409Z,97989.09
2019-05-06T02:41:55.145Z,97990.20
2019-05-06T02:42:57.903Z,97982.78
2019-05-06T02:44:03.656Z,97984.02
2019-05-06T02:45:05.576Z,97985.34
2019-05-06T02:46:07.292Z,97983.88
2019-05-06T02:47:18.983Z,97987.23
2019-05-06T02:48:43.234Z,97985.14
2019-05-06T02:49:47.492Z,97983.81
2019-05-06T02:50:53.476Z,97982.42
2019-05-06T02:51:56.682Z,97982.42
2019-05-06T02:52:59.278Z,97987.44
2019-05-06T02:54:03.273Z,97978.52
2019-05-06T02:55:06.622Z,97983.84
2019-05-06T02:56:13.215Z,97974.83
2019-05-06T02:57:14.748Z,97984.33
2019-05-06T02:58:17.502Z,97978.28
2019-05-06T02:59:23.816Z,97981.19
2019-05-06T03:00:25.919Z,97987.44
2019-05-06T03:01:27.745Z,97979.31
2019-05-06T03:02:39.912Z,97982.08
2019-05-06T03:03:35.099Z,97976.23
2019-05-06T03:04:39.721Z,97975.95
2019-05-06T03:05:44.152Z,97981.91
2019-05-06T03:06:46.636Z,97976.40
2019-05-06T03:07:48.624Z,97975.91
2019-05-06T03:08:54.109Z,97984.17
2019-05-06T03:09:56.109Z,97978.69
2019-05-06T03:10:58.548Z,97983.58
2019-05-06T03:12:03.800Z,97974.03
2019-05-06T03:13:06.860Z,97977.38
2019-05-06T03:14:09.527Z,97979.05
2019-05-06T03:15:16.177Z,97982.27
2019-05-06T03:16:16.857Z,97981.22
2019-05-06T03:17:19.141Z,97986.77
2019-05-06T03:18:23.589Z,97982.72
2019-05-06T03:19:27.026Z,97988.72
2019-05-06T03:20:43.906Z,97988.58
2019-05-06T03:21:49.489Z,97989.77
2019-05-06T03:22:54.539Z,97996.19
2019-05-06T03:24:06.943Z,97991.52
2019-05-06T03:25:08.448Z,97993.15
2019-05-06T03:26:13.584Z,97993.39
2019-05-06T03:27:14.835Z,97991.05
2019-05-06T03:28:17.740Z,97997.68
2019-05-06T03:29:20.533Z,97991.38
2019-05-06T03:30:25.349Z,97996.42
2019-05-06T03:31:26.802Z,97997.28
2019-05-06T03:32:36.071Z,97997.52
2019-05-06T03:33:50.461Z,98001.50
2019-05-06T03:34:58.750Z,97998.39
2019-05-06T03:35:57.842Z,98006.34
2019-05-06T03:36:48.803Z,98000.98
2019-05-06T03:37:53.410Z,98004.20
2019-05-06T03:38:56.086Z,97997.95
2019-05-06T03:39:58.424Z,97992.59
2019-05-06T03:41:03.160Z,97994.61
2019-05-06T03:42:05.750Z,97997.89
2019-05-06T03:43:07.671Z,97997.40
2019-05-06T03:44:10.108Z,97996.56
2019-05-06T03:45:14.815Z,97991.72
2019-05-06T03:46:22.960Z,97993.28
2019-05-06T03:47:29.788Z,97990.03
2019-05-06T03:48:34.157Z,97994.44
2019-05-06T03:49:39.556Z,97997.60
2019-05-06T03:50:44.016Z,97995.05
2019-05-06T03:51:46.137Z,97992.30
2019-05-06T03:52:49.080Z,97996.87
2019-05-06T03:53:56.319Z,97998.34
2019-05-06T03:54:57.288Z,97990.98
2019-05-06T03:56:03.190Z,97994.35
2019-05-06T03:57:04.503Z,97991.56
2019-05-06T03:58:07.889Z,97993.81
2019-05-06T03:59:13.328Z,97993.89
2019-05-06T04:00:17.085Z,97996.92
2019-05-06T04:01:23.622Z,97996.46
2019-05-06T04:02:25.804Z,98002.08
2019-05-06T04:03:44.174Z,97995.77
2019-05-06T04:04:33.399Z,98000.92
2019-05-06T04:05:37.200Z,97995.48
2019-05-06T04:06:43.476Z,97995.97
2019-05-06T04:07:46.866Z,97990.13
2019-05-06T04:08:52.936Z,97995.31
2019-05-06T04:09:54.826Z,97992.48
2019-05-06T04:10:59.673Z,97986.52
2019-05-06T04:12:03.725Z,97988.86
2019-05-06T04:13:06.930Z,97987.73
2019-05-06T04:14:13.695Z,97993.02
2019-05-06T04:15:16.628Z,97986.64
2019-05-06T04:16:27.022Z,97996.83
2019-05-06T04:17:33.962Z,97989.58
2019-05-06T04:18:39.062Z,97989.14
2019-05-06T04:19:53.463Z,97995.47
2019-05-06T04:20:56.766Z,97988.80
2019-05-06T04:22:19.000Z,97992.86
2019-05-06T04:23:28.039Z,97994.64
2019-05-06T04:24:44.553Z,98000.61
2019-05-06T04:26:06.957Z,97999.59
2019-05-06T04:27:42.762Z,97994.78
2019-05-06T04:28:44.944Z,97997.98
2019-05-06T04:29:47.720Z,97998.36
2019-05-06T04:30:50.108Z,98001.95
2019-05-06T04:31:53.962Z,97996.52
2019-05-06T04:32:57.525Z,97996.83
2019-05-06T04:34:10.160Z,97990.30
2019-05-06T04:35:04.589Z,97989.52
2019-05-06T04:36:07.655Z,97984.84
2019-05-06T04:37:09.404Z,97985.31
2019-05-06T04:38:14.065Z,97990.44
2019-05-06T04:39:18.086Z,97979.52
2019-05-06T04:40:23.555Z,97980.73
2019-05-06T04:41:26.592Z,97985.66
2019-05-06T04:42:28.554Z,97983.00
2019-05-06T04:43:33.715Z,97994.47
2019-05-06T04:44:35.870Z,97993.26
2019-05-06T04:45:38.665Z,97993.89
2019-05-06T04:46:44.025Z,98002.50
2019-05-06T04:47:45.730Z,97994.88
2019-05-06T04:48:49.069Z,98001.47
2019-05-06T04:49:53.263Z,97997.03
2019-05-06T04:50:56.655Z,98004.78
2019-05-06T04:51:59.235Z,97997.70
2019-05-06T04:53:04.723Z,97995.42
2019-05-06T04:54:06.303Z,97993.70
2019-05-06T04:55:08.283Z,97992.55
2019-05-06T04:56:14.117Z,97993.38
2019-05-06T04:57:14.820Z,97992.80
2019-05-06T04:58:17.695Z,97995.08
2019-05-06T04:59:23.245Z,97997.13
2019-05-06T05:00:25.254Z,97987.53
2019-05-06T05:01:27.971Z,97982.66
2019-05-06T05:02:33.411Z,97979.87
2019-05-06T05:03:36.175Z,97977.70
2019-05-06T05:04:38.671Z,97985.31
2019-05-06T05:05:44.493Z,97974.97
2019-05-06T05:06:46.829Z,97975.34
2019-05-06T05:07:49.805Z,97980.50
2019-05-06T05:08:53.159Z,97972.06
2019-05-06T05:09:59.940Z,97979.32
2019-05-06T05:11:04.774Z,97980.45
2019-05-06T05:12:09.496Z,97982.72
2019-05-06T05:13:12.661Z,97980.33
2019-05-06T05:14:21.708Z,97994.47
2019-05-06T05:15:24.859Z,97988.28
2019-05-06T05:16:29.196Z,97990.75
2019-05-06T05:17:46.521Z,97992.66
2019-05-06T05:18:50.518Z,97993.58
2019-05-06T05:19:53.010Z,97992.82
2019-05-06T05:20:55.986Z,98000.94
2019-05-06T05:22:07.718Z,97997.66
2019-05-06T05:23:11.855Z,97997.50
2019-05-06T05:24:14.835Z,97997.09
2019-05-06T05:25:18.857Z,97996.23
2019-05-06T05:26:22.550Z,97997.87
2019-05-06T05:27:25.804Z,97995.22
2019-05-06T05:28:28.427Z,97996.11
2019-05-06T05:29:32.527Z,97998.16
2019-05-06T05:30:35.444Z,98002.53
2019-05-06T05:31:38.267Z,97993.48
2019-05-06T05:32:42.783Z,97991.67
2019-05-06T05:33:44.988Z,97992.39
2019-05-06T05:34:48.877Z,98000.23
2019-05-06T05:35:52.527Z,98000.69
2019-05-06T05:36:54.951Z,97994.88
2019-05-06T05:37:58.843Z,98004.75
2019-05-06T05:39:04.224Z,98003.00
2019-05-06T05:40:07.326Z,98002.82
2019-05-06T05:41:12.124Z,98005.47
2019-05-06T05:42:17.599Z,98011.41
2019-05-06T05:43:24.768Z,98005.02
2019-05-06T05:44:35.135Z,98012.30
2019-05-06T05:45:37.773Z,98013.31
2019-05-06T05:46:40.263Z,98014.14
2019-05-06T05:47:43.206Z,98007.38
2019-05-06T05:48:47.793Z,98009.65
2019-05-06T05:50:02.662Z,98009.97
2019-05-06T05:51:04.618Z,98008.38
2019-05-06T05:52:07.943Z,97998.84
2019-05-06T05:53:12.076Z,98006.50
2019-05-06T05:54:14.615Z,98011.46
2019-05-06T05:55:16.452Z,98006.50
2019-05-06T05:56:19.130Z,98007.91
2019-05-06T05:57:22.626Z,98009.23
2019-05-06T05:58:26.645Z,98005.88
2019-05-06T05:59:29.390Z,98004.90
2019-05-06T06:00:33.381Z,98006.37
2019-05-06T06:01:35.956Z,98007.31
2019-05-06T06:02:38.633Z,98004.03
2019-05-06T06:03:42.171Z,98003.89
2019-05-06T06:04:54.831Z,98001.76
2019-05-06T06:05:52.061Z,98011.84
2019-05-06T06:06:55.321Z,98008.84
2019-05-06T06:07:57.759Z,98014.89
2019-05-06T06:09:02.876Z,98018.58
2019-05-06T06:10:08.816Z,98021.19
2019-05-06T06:11:16.078Z,98019.43
2019-05-06T06:12:18.671Z,98019.48
2019-05-06T06:13:22.282Z,98022.13
2019-05-06T06:14:43.712Z,98011.83
2019-05-06T06:16:02.850Z,98012.78
2019-05-06T06:17:23.860Z,98010.02
2019-05-06T06:18:46.479Z,98009.70
2019-05-06T06:19:53.404Z,98003.11
2019-05-06T06:20:56.555Z,98003.42
2019-05-06T06:22:02.739Z,98016.33
2019-05-06T06:23:07.781Z,98010.02
2019-05-06T06:24:13.147Z,98012.78
2019-05-06T06:25:16.718Z,98016.05
2019-05-06T06:26:19.825Z,98019.26
2019-05-06T06:27:22.387Z,98016.98
2019-05-06T06:28:25.487Z,98012.19
2019-05-06T06:29:28.317Z,98014.33
2019-05-06T06:30:36.843Z,98017.95
2019-05-06T06:31:43.881Z,98016.27
2019-05-06T06:32:47.823Z,98009.01
2019-05-06T06:33:53.003Z,98010.14
2019-05-06T06:35:08.339Z,98010.14
2019-05-06T06:36:05.269Z,98011.97
2019-05-06T06:37:27.683Z,98007.83
2019-05-06T06:38:47.815Z,98011.17
2019-05-06T06:39:52.675Z,98005.52
2019-05-06T06:40:55.837Z,98008.42
2019-05-06T06:41:58.739Z,98006.84
2019-05-06T06:43:02.620Z,98009.47
2019-05-06T06:44:24.214Z,98006.91
2019-05-06T06:45:27.659Z,98004.13
2019-05-06T06:46:32.233Z,98003.77
2019-05-06T06:47:34.312Z,98006.80
2019-05-06T06:48:36.749Z,98002.80
2019-05-06T06:49:39.263Z,98011.69
2019-05-06T06:50:42.681Z,98004.06
2019-05-06T06:51:45.028Z,98009.30
2019-05-06T06:52:52.323Z,98000.89
2019-05-06T06:53:55.514Z,98005.81
2019-05-06T06:54:57.642Z,98003.17
2019-05-06T06:56:19.150Z,98005.30
2019-05-06T06:57:25.010Z,98011.12
2019-05-06T06:58:32.303Z,97998.97
2019-05-06T06:59:37.756Z,98012.12
2019-05-06T07:00:43.193Z,98009.41
2019-05-06T07:01:48.040Z,98013.52
2019-05-06T07:02:53.992Z,98009.33
2019-05-06T07:03:59.063Z,98011.02
2019-05-06T07:05:24.802Z,98002.23
2019-05-06T07:06:24.697Z,98006.76
2019-05-06T07:07:41.309Z,98002.78
2019-05-06T07:08:37.559Z,98003.41
2019-05-06T07:09:38.704Z,98003.08
2019-05-06T07:10:44.058Z,98011.51
2019-05-06T07:11:46.905Z,98000.33
2019-05-06T07:12:49.141Z,97996.44
2019-05-06T07:13:53.063Z,97996.69
2019-05-06T07:15:02.428Z,98002.13
2019-05-06T07:16:06.246Z,97992.72
2019-05-06T07:17:08.874Z,97996.66
2019-05-06T07:18:13.647Z,97997.78
2019-05-06T07:19:17.593Z,97998.64
2019-05-06T07:20:23.053Z,97993.89
2019-05-06T07:21:31.545Z,97992.95
2019-05-06T07:22:36.615Z,97995.97
2019-05-06T07:23:41.953Z,97988.96
2019-05-06T07:24:43.652Z,97987.08
2019-05-06T07:25:45.786Z,97989.20
2019-05-06T07:26:52.464Z,97982.19
2019-05-06T07:27:54.824Z,97989.39
2019-05-06T07:28:57.572Z,97992.65
2019-05-06T07:29:59.919Z,97986.05
2019-05-06T07:31:17.415Z,97991.28
2019-05-06T07:32:06.559Z,97990.86
2019-05-06T07:33:09.097Z,97984.58
2019-05-06T07:34:12.014Z,97994.42
2019-05-06T07:35:14.439Z,97990.80
2019-05-06T07:36:19.906Z,97996.59
2019-05-06T07:37:22.107Z,97999.59
2019-05-06T07:38:25.758Z,97983.69
2019-05-06T07:39:28.294Z,97986.66
2019-05-06T07:40:32.505Z,97983.00
2019-05-06T07:41:36.652Z,97982.81
2019-05-06T07:42:42.586Z,97993.23
2019-05-06T07:43:52.640Z,97983.34
2019-05-06T07:44:55.509Z,97992.88
2019-05-06T07:46:12.844Z,97989.59
2019-05-06T07:47:20.166Z,97987.66
2019-05-06T07:48:23.557Z,97995.53
2019-05-06T07:49:26.666Z,97989.26
2019-05-06T07:50:29.111Z,97993.51
2019-05-06T07:51:32.466Z,97989.19
2019-05-06T07:52:35.110Z,97994.16
2019-05-06T07:53:37.882Z,97995.80
2019-05-06T07:54:42.409Z,97993.00
2019-05-06T07:55:44.784Z,97992.19
2019-05-06T07:56:47.772Z,97994.50
2019-05-06T07:57:52.551Z,97988.17
2019-05-06T07:59:08.457Z,97995.74
2019-05-06T08:00:12.511Z,97993.05
2019-05-06T08:01:14.760Z,97995.77
2019-05-06T08:02:17.331Z,97984.84
2019-05-06T08:03:22.273Z,97987.33
2019-05-06T08:04:26.723Z,97985.17
2019-05-06T08:05:29.134Z,97988.80
2019-05-06T08:06:32.154Z,97986.95
2019-05-06T08:07:35.124Z,97989.26
2019-05-06T08:08:37.668Z,97987.81
2019-05-06T08:09:42.175Z,97982.98
2019-05-06T08:10:45.122Z,97999.25
2019-05-06T08:11:47.669Z,97986.95
2019-05-06T08:12:52.531Z,97983.67
2019-05-06T08:13:56.160Z,97987.62
2019-05-06T08:14:58.739Z,97990.90
2019-05-06T08:16:02.207Z,97993.92
2019-05-06T08:17:06.846Z,97998.45
2019-05-06T08:18:12.035Z,97995.73
2019-05-06T08:19:15.109Z,98003.63
2019-05-06T08:20:18.363Z,97996.94
2019-05-06T08:21:24.712Z,97998.17
2019-05-06T08:22:48.066Z,97990.88
2019-05-06T08:23:52.546Z,98000.30
2019-05-06T08:24:54.309Z,97998.28
2019-05-06T08:26:10.030Z,97998.47
2019-05-06T08:27:04.922Z,98000.95
2019-05-06T08:28:07.244Z,98001.64
2019-05-06T08:29:12.165Z,97994.56
2019-05-06T08:30:16.214Z,98003.83
2019-05-06T08:31:22.192Z,98008.01
2019-05-06T08:32:25.457Z,98002.73
2019-05-06T08:33:28.065Z,98009.77
2019-05-06T08:34:30.826Z,98007.83
2019-05-06T08:35:33.578Z,98009.03
2019-05-06T08:36:42.754Z,98005.50
2019-05-06T08:37:46.165Z,97998.44
2019-05-06T08:38:57.375Z,98009.33
2019-05-06T08:39:59.655Z,98000.57
2019-05-06T08:41:03.310Z,98009.13
2019-05-06T08:42:06.462Z,98005.24
2019-05-06T08:43:09.194Z,97998.77
2019-05-06T08:44:12.772Z,98004.03
2019-05-06T08:45:15.710Z,98007.28
2019-05-06T08:46:19.510Z,97999.62
2019-05-06T08:47:23.684Z,98007.28
2019-05-06T08:48:26.194Z,98007.95
2019-05-06T08:49:32.306Z,98013.30
2019-05-06T08:50:36.106Z,98007.97
2019-05-06T08:51:38.392Z,98007.13
2019-05-06T08:52:54.984Z,98010.66
2019-05-06T08:54:00.280Z,97999.18
2019-05-06T08:55:04.985Z,98003.19
2019-05-06T08:56:08.945Z,98007.77
2019-05-06T08:57:11.916Z,98004.39
2019-05-06T08:58:14.339Z,98010.91
2019-05-06T08:59:17.487Z,98016.00
2019-05-06T09:00:20.129Z,98014.02
2019-05-06T09:01:24.448Z,98013.03
2019-05-06T09:02:26.783Z,98009.97
2019-05-06T09:03:29.579Z,98008.71
2019-05-06T09:04:32.196Z,98006.95
2019-05-06T09:05:34.547Z,98005.06
2019-05-06T09:06:37.098Z,98002.55
2019-05-06T09:07:39.959Z,97995.17
2019-05-06T09:08:42.932Z,97997.89
2019-05-06T09:09:45.299Z,97999.57
2019-05-06T09:10:52.112Z,98000.38
2019-05-06T09:11:55.292Z,97995.84
2019-05-06T09:12:57.453Z,97995.45
2019-05-06T09:13:59.916Z,97999.09
2019-05-06T09:15:03.912Z,97998.73
2019-05-06T09:16:07.921Z,97989.28
2019-05-06T09:17:12.043Z,97989.80
2019-05-06T09:18:14.785Z,97984.75
2019-05-06T09:19:17.382Z,97981.16
2019-05-06T09:20:20.180Z,97986.48
2019-05-06T09:21:23.133Z,97982.41
2019-05-06T09:22:25.493Z,97980.63
2019-05-06T09:23:27.855Z,97988.98
2019-05-06T09:24:32.075Z,97986.69
2019-05-06T09:25:34.705Z,97981.39
2019-05-06T09:26:44.954Z,97994.00
2019-05-06T09:27:52.645Z,97975.80
2019-05-06T09:28:57.029Z,97976.38
2019-05-06T09:30:03.048Z,97974.71
2019-05-06T09:31:13.674Z,97979.84
2019-05-06T09:32:23.871Z,97975.29
2019-05-06T09:33:28.037Z,97971.80
2019-05-06T09:34:48.152Z,97973.45
2019-05-06T09:35:52.892Z,97965.98
2019-05-06T09:37:04.147Z,97976.78
2019-05-06T09:38:07.133Z,97971.98
2019-05-06T09:39:09.590Z,97971.63
2019-05-06T09:40:12.858Z,97961.00
2019-05-06T09:41:15.498Z,97959.86
2019-05-06T09:42:18.006Z,97957.66
2019-05-06T09:43:22.256Z,97969.84
2019-05-06T09:44:24.652Z,97971.02
2019-05-06T09:45:27.520Z,97984.13
2019-05-06T09:46:32.186Z,97970.64
2019-05-06T09:47:53.469Z,97963.56
2019-05-06T09:49:04.125Z,97969.73
2019-05-06T09:50:09.906Z,97969.33
2019-05-06T09:51:13.075Z,97960.48
2019-05-06T09:52:15.887Z,97959.37
2019-05-06T09:53:29.584Z,97966.45
2019-05-06T09:54:33.819Z,97970.73
2019-05-06T09:55:38.306Z,97980.36
2019-05-06T09:56:49.142Z,97962.61
2019-05-06T09:58:07.822Z,97966.09
2019-05-06T09:59:12.730Z,97967.63
2019-05-06T10:00:16.683Z,97961.67
2019-05-06T10:01:19.438Z,97959.30
2019-05-06T10:02:23.550Z,97966.95
2019-05-06T10:03:25.931Z,97957.36
2019-05-06T10:04:28.577Z,97956.45
2019-05-06T10:05:32.015Z,97962.17
2019-05-06T10:06:36.043Z,97947.28
2019-05-06T10:07:40.230Z,97954.26
2019-05-06T10:08:42.726Z,97950.70
2019-05-06T10:09:44.573Z,97943.62
2019-05-06T10:10:56.742Z,97949.69
2019-05-06T10:11:52.607Z,97953.17
2019-05-06T10:12:55.319Z,97946.80
2019-05-06T10:13:57.742Z,97950.42
2019-05-06T10:15:03.156Z,97949.09
2019-05-06T10:16:08.272Z,97945.30
2019-05-06T10:17:13.172Z,97953.11
2019-05-06T10:18:16.900Z,97953.11
2019-05-06T10:19:22.406Z,97946.72
2019-05-06T10:20:25.125Z,97951.50
2019-05-06T10:21:27.573Z,97959.52
2019-05-06T10:22:32.298Z,97949.86
2019-05-06T10:23:35.725Z,97956.42
2019-05-06T10:24:38.350Z,97958.87
2019-05-06T10:25:43.809Z,97963.74
2019-05-06T10:26:52.487Z,97953.08
2019-05-06T10:27:57.312Z,97954.02
2019-05-06T10:29:06.406Z,97949.73
2019-05-06T10:30:12.581Z,97952.97
2019-05-06T10:31:17.805Z,97947.67
2019-05-06T10:32:23.184Z,97949.13
2019-05-06T10:33:29.685Z,97952.92
2019-05-06T10:34:32.821Z,97949.61
2019-05-06T10:35:35.518Z,97950.59
2019-05-06T10:36:49.881Z,97953.52
2019-05-06T10:38:15.991Z,97957.80
2019-05-06T10:39:23.020Z,97958.23
2019-05-06T10:40:57.213Z,97957.84
2019-05-06T10:41:54.601Z,97952.27
2019-05-06T10:43:13.443Z,97955.30
2019-05-06T10:44:22.568Z,97952.34
2019-05-06T10:45:32.375Z,97945.98
2019-05-06T10:46:35.455Z,97945.71
2019-05-06T10:47:38.302Z,97945.40
2019-05-06T10:48:42.416Z,97943.82
2019-05-06T10:49:45.117Z,97939.01
2019-05-06T10:50:55.832Z,97936.22
2019-05-06T10:52:09.958Z,97937.06
2019-05-06T10:53:23.064Z,97939.98
2019-05-06T10:54:25.311Z,97944.13
2019-05-06T10:55:27.701Z,97938.73
2019-05-06T10:56:31.990Z,97939.95
2019-05-06T10:57:40.390Z,97932.70
2019-05-06T10:58:44.047Z,97935.42
2019-05-06T10:59:47.347Z,97940.91
2019-05-06T11:00:52.920Z,97939.08
2019-05-06T11:02:02.580Z,97941.45
2019-05-06T11:03:22.899Z,97944.34
2019-05-06T11:04:24.858Z,97935.73
2019-05-06T11:05:27.793Z,97934.27
2019-05-06T11:06:30.837Z,97944.03
2019-05-06T11:07:35.317Z,97933.81
2019-05-06T11:08:38.789Z,97933.92
2019-05-06T11:09:43.289Z,97931.89
2019-05-06T11:10:47.383Z,97939.67
2019-05-06T11:11:51.487Z,97932.91
2019-05-06T11:12:53.892Z,97940.68
2019-05-06T11:13:57.305Z,97932.16
2019-05-06T11:15:03.465Z,97937.61
2019-05-06T11:16:05.803Z,97943.81
2019-05-06T11:17:07.980Z,97944.70
2019-05-06T11:18:13.269Z,97945.13
2019-05-06T11:19:16.476Z,97935.11
2019-05-06T11:20:20.784Z,97932.86
2019-05-06T11:21:22.824Z,97940.38
2019-05-06T11:22:25.285Z,97944.39
2019-05-06T11:23:27.746Z,97933.86
2019-05-06T11:24:32.672Z,97937.72
2019-05-06T11:25:37.768Z,97935.11
2019-05-06T11:26:43.007Z,97932.10
2019-05-06T11:27:45.428Z,97915.92
2019-05-06T11:28:51.862Z,97931.97
2019-05-06T11:29:56.229Z,97926.88
2019-05-06T11:31:02.622Z,97919.94
2019-05-06T11:32:06.416Z,97921.53
2019-05-06T11:33:19.743Z,97916.55
2019-05-06T11:34:32.584Z,97924.19
2019-05-06T11:35:52.993Z,97942.75
2019-05-06T11:36:56.925Z,97943.49
2019-05-06T11:38:04.334Z,97933.45
2019-05-06T11:39:07.947Z,97932.92
2019-05-06T11:40:16.634Z,97934.56
2019-05-06T11:41:15.216Z,97932.71
2019-05-06T11:42:27.441Z,97934.22
2019-05-06T11:43:22.749Z,97932.92
2019-05-06T11:44:25.223Z,97931.25
2019-05-06T11:45:27.217Z,97920.99
2019-05-06T11:46:32.128Z,97926.52
2019-05-06T11:47:34.694Z,97925.96
2019-05-06T11:48:37.617Z,97929.13
2019-05-06T11:49:39.554Z,97935.63
2019-05-06T11:50:45.850Z,97926.00
2019-05-06T11:51:51.308Z,97926.86
2019-05-06T11:52:56.516Z,97933.11
2019-05-06T11:53:58.741Z,97925.04
2019-05-06T11:55:04.870Z,97917.03
2019-05-06T11:56:07.701Z,97924.47
2019-05-06T11:57:12.430Z,97929.29
2019-05-06T11:58:34.633Z,97931.89
2019-05-06T11:59:37.186Z,97931.05
2019-05-06T12:00:44.432Z,97925.30
2019-05-06T12:01:53.440Z,97930.97
2019-05-06T12:02:55.053Z,97928.27
2019-05-06T12:03:57.870Z,97935.80
2019-05-06T12:05:02.324Z,97928.45
2019-05-06T12:06:05.754Z,97924.55
2019-05-06T12:07:11.361Z,97924.51
2019-05-06T12:08:15.340Z,97920.58
2019-05-06T12:09:17.209Z,97926.67
2019-05-06T12:10:19.820Z,97928.80
2019-05-06T12:11:23.955Z,97921.73
2019-05-06T12:12:26.534Z,97930.39
2019-05-06T12:13:28.732Z,97925.45
2019-05-06T12:14:32.063Z,97920.70
2019-05-06T12:15:34.842Z,97916.47
2019-05-06T12:16:38.221Z,97920.41
2019-05-06T12:17:42.166Z,97914.78
2019-05-06T12:18:45.142Z,97919.13
2019-05-06T12:19:47.700Z,97927.48
2019-05-06T12:20:52.680Z,97928.67
2019-05-06T12:21:55.030Z,97914.29
2019-05-06T12:22:57.795Z,97919.02
2019-05-06T12:24:02.804Z,97918.70
2019-05-06T12:25:11.674Z,97922.69
2019-05-06T12:26:13.414Z,97915.06
2019-05-06T12:27:35.358Z,97917.12
2019-05-06T12:28:37.827Z,97918.58
2019-05-06T12:29:42.859Z,97917.50
2019-05-06T12:30:44.566Z,97910.61
2019-05-06T12:31:48.259Z,97916.55
2019-05-06T12:32:53.775Z,97910.02
2019-05-06T12:33:56.303Z,97902.41
2019-05-06T12:34:58.986Z,97913.02
2019-05-06T12:36:13.293Z,97910.06
2019-05-06T12:37:17.373Z,97910.83
2019-05-06T12:38:30.358Z,97910.38
2019-05-06T12:39:28.503Z,97911.34
2019-05-06T12:40:32.085Z,97904.81
2019-05-06T12:41:36.807Z,97906.03
2019-05-06T12:42:43.287Z,97911.27